createdAt,value
2022-10-12T00:02:26.332Z,73.54
2022-10-12T00:04:58.528Z,73.21
2022-10-12T00:07:27.827Z,73.80
2022-10-12T00:10:01.774Z,73.98
2022-10-12T00:12:34.873Z,73.21
2022-10-12T00:15:18.926Z,73.18
2022-10-12T00:17:51.697Z,74.10
2022-10-12T00:20:25.336Z,74.37
2022-10-12T00:22:58.437Z,73.91
2022-10-12T00:25:33.004Z,73.34
2022-10-12T00:28:08.186Z,73.20
2022-10-12T00:30:47.778Z,73.05
2022-10-12T00:33:23.921Z,73.10
2022-10-12T00:35:56.049Z,73.54
2022-10-12T00:38:25.573Z,73.97
2022-10-12T00:40:58.745Z,74.12
2022-10-12T00:43:35.015Z,74.24
2022-10-12T00:46:12.887Z,73.85
2022-10-12T00:48:43.199Z,73.93
2022-10-12T00:51:12.158Z,73.96
2022-10-12T00:53:44.858Z,73.67
2022-10-12T00:56:19.926Z,73.12
2022-10-12T00:58:52.041Z,73.30
2022-10-12T01:01:23.623Z,73.39
2022-10-12T01:04:00.972Z,73.55
2022-10-12T01:06:30.425Z,72.76
2022-10-12T01:09:00.873Z,72.93
2022-10-12T01:11:29.586Z,73.05
2022-10-12T01:13:58.772Z,72.89
2022-10-12T01:16:40.765Z,73.28
2022-10-12T01:19:38.453Z,73.49
2022-10-12T01:22:10.753Z,74.00
2022-10-12T01:24:56.409Z,73.93
2022-10-12T01:27:47.856Z,73.59
2022-10-12T01:30:23.428Z,73.26
2022-10-12T01:33:13.615Z,73.55
2022-10-12T01:35:51.454Z,73.18
2022-10-12T01:38:31.385Z,74.35
2022-10-12T01:41:06.172Z,74.38
2022-10-12T01:43:36.403Z,74.28
2022-10-12T01:46:46.513Z,73.27
2022-10-12T01:49:18.858Z,73.47
2022-10-12T01:52:18.168Z,74.37
2022-10-12T01:55:03.158Z,74.30
2022-10-12T01:57:41.900Z,73.05
2022-10-12T02:00:13.120Z,73.29
2022-10-12T02:02:53.926Z,74.08
2022-10-12T02:05:32.769Z,73.93
2022-10-12T02:08:07.761Z,73.67
2022-10-12T02:10:41.481Z,73.54
2022-10-12T02:13:15.110Z,73.87
2022-10-12T02:15:46.093Z,74.20
2022-10-12T02:18:20.056Z,73.47
2022-10-12T02:20:51.568Z,73.42
2022-10-12T02:23:21.199Z,73.47
2022-10-12T02:25:51.928Z,73.63
2022-10-12T02:28:24.033Z,73.29
2022-10-12T02:30:58.904Z,73.53
2022-10-12T02:33:33.701Z,73.63
2022-10-12T02:36:07.435Z,74.21
2022-10-12T02:38:39.624Z,74.02
2022-10-12T02:41:13.448Z,74.04
2022-10-12T03:32:59.621Z,73.83
2022-10-12T03:40:23.988Z,73.98
2022-10-12T06:16:24.952Z,75.17
2022-10-12T07:49:20.638Z,73.08
2022-10-12T07:51:49.655Z,72.25
2022-10-12T08:02:25.723Z,66.94
2022-10-12T08:04:58.032Z,66.34
2022-10-12T16:29:37.599Z,60.20
2022-10-12T16:32:07.035Z,60.33
2022-10-12T16:34:36.374Z,60.70
2022-10-12T17:15:19.609Z,63.30
2022-10-12T17:17:50.019Z,63.14
